createdAt,value
2019-02-07T00:00:56.654Z,9.10
2019-02-07T00:06:00.666Z,8.90
2019-02-07T00:11:04.686Z,9.10
2019-02-07T00:16:08.743Z,8.90
2019-02-07T00:21:12.763Z,8.90
2019-02-07T00:26:16.646Z,8.90
2019-02-07T00:31:20.682Z,8.90
2019-02-07T00:36:24.655Z,9.10
2019-02-07T00:41:28.760Z,9.00
2019-02-07T00:46:32.729Z,8.90
2019-02-07T00:51:36.772Z,9.10
2019-02-07T00:56:40.817Z,8.90
2019-02-07T01:01:44.913Z,8.90
2019-02-07T01:06:49.004Z,8.90
2019-02-07T01:11:53.024Z,8.90
2019-02-07T01:16:57.107Z,8.90
2019-02-07T01:22:01.175Z,8.90
2019-02-07T01:27:05.202Z,8.90
2019-02-07T01:32:09.807Z,9.00
2019-02-07T01:37:13.813Z,9.10
2019-02-07T01:42:18.339Z,8.90
2019-02-07T01:47:22.814Z,9.10
2019-02-07T01:52:26.851Z,9.10
2019-02-07T01:57:30.967Z,8.90
2019-02-07T02:02:35.099Z,8.90
2019-02-07T02:07:39.424Z,8.90
2019-02-07T02:12:43.723Z,8.90
2019-02-07T02:17:48.390Z,8.90
2019-02-07T02:22:53.803Z,8.90
2019-02-07T02:27:57.852Z,9.00
2019-02-07T02:33:01.916Z,8.90
2019-02-07T02:38:05.947Z,9.00
2019-02-07T02:43:11.043Z,8.90
2019-02-07T02:48:15.460Z,8.90
2019-02-07T02:53:19.516Z,8.90
2019-02-07T02:58:23.498Z,8.90
2019-02-07T03:03:55.476Z,8.80
2019-02-07T03:09:30.772Z,9.10
2019-02-07T03:14:52.075Z,8.90
2019-02-07T03:20:13.802Z,8.90
2019-02-07T03:25:35.916Z,8.80
2019-02-07T03:31:08.252Z,8.90
2019-02-07T03:36:49.614Z,9.00
2019-02-07T03:42:13.491Z,8.90
2019-02-07T03:47:36.607Z,8.90
2019-02-07T03:53:00.139Z,9.00
2019-02-07T03:58:25.568Z,8.90
2019-02-07T04:03:46.305Z,9.00
2019-02-07T04:09:09.432Z,8.80
2019-02-07T04:14:32.561Z,8.80
2019-02-07T04:19:54.638Z,8.90
2019-02-07T04:25:21.059Z,9.00
2019-02-07T04:30:40.120Z,8.80
2019-02-07T04:36:09.053Z,8.70
2019-02-07T04:41:21.250Z,8.90
2019-02-07T04:46:44.933Z,8.90
2019-02-07T04:52:11.106Z,8.80
2019-02-07T04:57:28.411Z,9.00
2019-02-07T05:03:00.992Z,8.70
2019-02-07T05:08:24.131Z,8.90
2019-02-07T05:13:53.208Z,9.00
2019-02-07T05:19:16.299Z,8.90
2019-02-07T05:24:39.982Z,8.90
2019-02-07T05:29:54.435Z,9.00
2019-02-07T05:35:29.892Z,9.00
2019-02-07T05:41:02.107Z,8.90
2019-02-07T05:46:13.341Z,8.90
2019-02-07T05:51:42.569Z,8.90
2019-02-07T05:57:11.612Z,9.00
2019-02-07T06:02:28.631Z,8.90
2019-02-07T06:07:54.569Z,8.90
2019-02-07T06:13:26.699Z,8.70
2019-02-07T06:18:52.612Z,8.80
2019-02-07T06:24:33.958Z,9.00
2019-02-07T06:29:54.651Z,8.90
2019-02-07T06:35:20.535Z,10.60
2019-02-07T06:40:43.676Z,9.60
2019-02-07T06:46:10.028Z,9.50
2019-02-07T06:51:30.675Z,9.20
2019-02-07T06:57:04.021Z,9.10
2019-02-07T07:02:30.223Z,9.30
2019-02-07T07:08:03.060Z,9.20
2019-02-07T07:13:19.184Z,9.40
2019-02-07T07:19:00.491Z,9.40
2019-02-07T07:24:22.515Z,9.10
2019-02-07T07:29:44.747Z,9.20
2019-02-07T07:35:06.455Z,9.40
2019-02-07T07:40:21.491Z,9.10
2019-02-07T07:45:35.342Z,9.20
2019-02-07T07:50:51.974Z,9.20
2019-02-07T07:56:18.101Z,9.20
2019-02-07T08:01:40.172Z,9.30
2019-02-07T08:06:55.459Z,9.20
2019-02-07T08:12:13.203Z,9.10
2019-02-07T08:17:35.187Z,9.30
2019-02-07T08:23:07.567Z,9.30
2019-02-07T08:28:33.793Z,9.30
2019-02-07T08:33:55.833Z,9.20
2019-02-07T08:39:18.173Z,9.20
2019-02-07T08:44:32.948Z,9.30
2019-02-07T08:50:02.042Z,9.20
2019-02-07T08:55:28.329Z,9.50
2019-02-07T09:00:51.497Z,9.30
2019-02-07T09:06:13.538Z,9.20
2019-02-07T09:11:41.340Z,9.50
2019-02-07T09:16:56.518Z,9.40
2019-02-07T09:22:19.631Z,9.30
2019-02-07T09:27:45.511Z,9.30
2019-02-07T09:33:07.664Z,9.50
2019-02-07T09:38:36.930Z,9.50
2019-02-07T09:44:12.388Z,9.50
2019-02-07T09:49:35.499Z,9.50
2019-02-07T09:54:54.587Z,9.50
2019-02-07T10:00:26.979Z,9.80
2019-02-07T10:05:49.411Z,9.60
2019-02-07T10:11:12.526Z,9.80
2019-02-07T10:16:51.015Z,9.60
2019-02-07T10:22:17.132Z,9.70
2019-02-07T10:27:37.620Z,9.70
2019-02-07T10:32:50.689Z,9.50
2019-02-07T10:38:28.861Z,9.90
2019-02-07T10:43:56.974Z,9.60
2019-02-07T10:49:16.294Z,9.90
2019-02-07T10:54:38.353Z,10.00
2019-02-07T11:00:01.081Z,10.10
2019-02-07T11:05:31.760Z,10.00
2019-02-07T11:11:13.263Z,10.00
2019-02-07T11:16:45.709Z,10.10
2019-02-07T11:22:01.855Z,9.90
2019-02-07T11:27:43.192Z,10.80
2019-02-07T11:32:58.708Z,10.40
2019-02-07T11:38:20.579Z,10.40
2019-02-07T11:43:35.790Z,10.30
2019-02-07T11:49:07.306Z,10.20
2019-02-07T11:54:29.447Z,10.40
2019-02-07T11:59:55.738Z,10.20
2019-02-07T12:05:17.220Z,10.50
2019-02-07T12:10:39.673Z,10.30
2019-02-07T12:16:09.088Z,10.50
2019-02-07T12:21:31.231Z,10.40
2019-02-07T12:26:48.468Z,10.20
2019-02-07T12:32:20.631Z,10.50
2019-02-07T12:37:42.610Z,10.50
2019-02-07T12:43:04.745Z,10.20
2019-02-07T12:48:26.826Z,10.40
2019-02-07T12:53:48.881Z,10.50
2019-02-07T12:59:18.338Z,10.40
2019-02-07T13:04:50.709Z,10.50
2019-02-07T13:10:05.755Z,10.50
2019-02-07T13:15:32.904Z,10.20
2019-02-07T13:20:56.178Z,10.40
2019-02-07T13:26:18.548Z,10.40
2019-02-07T13:32:00.033Z,10.40
2019-02-07T13:37:17.291Z,10.50
2019-02-07T13:42:39.140Z,10.50
2019-02-07T13:48:08.375Z,10.60
2019-02-07T13:53:49.655Z,10.50
2019-02-07T13:59:02.381Z,10.40
2019-02-07T14:04:17.671Z,10.40
2019-02-07T14:09:38.691Z,10.30
2019-02-07T14:14:56.036Z,10.60
2019-02-07T14:20:27.957Z,10.50
2019-02-07T14:25:49.744Z,10.60
2019-02-07T14:31:20.100Z,10.60
2019-02-07T14:36:47.684Z,10.50
2019-02-07T14:42:07.889Z,10.70
2019-02-07T14:47:12.148Z,10.50
2019-02-07T14:52:16.766Z,10.50
2019-02-07T14:57:20.755Z,10.40
2019-02-07T15:02:24.895Z,10.50
2019-02-07T15:07:28.961Z,10.50
2019-02-07T15:12:33.032Z,10.60
2019-02-07T15:17:37.083Z,10.50
2019-02-07T15:22:41.355Z,10.60
2019-02-07T15:27:47.117Z,10.70
2019-02-07T15:32:51.184Z,10.60
2019-02-07T15:37:56.265Z,10.50
2019-02-07T15:43:00.406Z,10.50
2019-02-07T15:48:04.586Z,10.30
2019-02-07T15:53:10.009Z,10.60
2019-02-07T15:58:14.188Z,10.40
2019-02-07T16:03:43.639Z,10.60
2019-02-07T16:08:47.695Z,10.80
2019-02-07T16:13:52.028Z,10.80
2019-02-07T16:18:56.124Z,10.80
2019-02-07T16:24:01.194Z,10.60
2019-02-07T16:29:05.577Z,10.50
2019-02-07T16:34:09.700Z,10.60
2019-02-07T16:39:14.440Z,10.80
2019-02-07T16:44:18.580Z,10.60
2019-02-07T16:49:22.579Z,10.40
2019-02-07T16:54:26.680Z,10.60
2019-02-07T16:59:30.755Z,10.40
2019-02-07T17:04:34.826Z,10.70
2019-02-07T17:09:44.154Z,10.50
2019-02-07T17:14:48.472Z,10.50
2019-02-07T17:19:52.568Z,10.50
2019-02-07T17:24:56.650Z,10.30
2019-02-07T17:30:00.717Z,12.80
2019-02-07T17:35:06.292Z,11.80
2019-02-07T17:40:15.368Z,11.30
2019-02-07T17:45:22.611Z,10.90
2019-02-07T17:50:29.354Z,10.80
2019-02-07T17:55:33.502Z,10.80
2019-02-07T18:00:50.201Z,10.90
2019-02-07T18:05:54.259Z,10.70
2019-02-07T18:10:58.320Z,10.80
2019-02-07T18:16:02.427Z,10.70
2019-02-07T18:21:06.535Z,10.50
2019-02-07T18:26:10.582Z,10.50
2019-02-07T18:31:14.647Z,10.60
2019-02-07T18:36:18.705Z,10.50
2019-02-07T18:41:22.783Z,10.60
2019-02-07T18:46:26.874Z,10.50
2019-02-07T18:51:30.922Z,10.60
2019-02-07T18:56:34.952Z,10.40
2019-02-07T19:01:39.019Z,10.60
2019-02-07T19:06:43.119Z,10.50
2019-02-07T19:11:47.178Z,10.50
2019-02-07T19:16:51.561Z,10.50
2019-02-07T19:21:57.407Z,10.40
2019-02-07T19:27:01.347Z,10.50
2019-02-07T19:32:05.729Z,10.40
2019-02-07T19:37:09.823Z,10.40
2019-02-07T19:42:13.970Z,10.00
2019-02-07T19:47:18.096Z,10.10
2019-02-07T19:52:22.158Z,10.20
2019-02-07T19:57:26.140Z,10.30
2019-02-07T20:02:30.127Z,10.00
2019-02-07T20:07:34.171Z,10.00
2019-02-07T20:12:38.239Z,9.90
2019-02-07T20:17:42.290Z,10.00
2019-02-07T20:22:46.416Z,9.90
2019-02-07T20:27:50.571Z,9.90
2019-02-07T20:32:55.000Z,10.40
2019-02-07T20:37:59.068Z,10.20
2019-02-07T20:43:03.052Z,10.10
2019-02-07T20:48:08.819Z,10.20
2019-02-07T20:53:14.523Z,10.20
2019-02-07T20:58:18.574Z,10.10
2019-02-07T21:03:22.634Z,9.90
2019-02-07T21:08:26.602Z,9.90
2019-02-07T21:13:31.063Z,9.80
2019-02-07T21:18:34.995Z,10.10
2019-02-07T21:23:38.961Z,10.20
2019-02-07T21:28:43.032Z,10.20
2019-02-07T21:33:47.155Z,9.80
2019-02-07T21:38:51.320Z,10.10
2019-02-07T21:43:55.374Z,9.90
2019-02-07T21:48:59.498Z,10.10
2019-02-07T21:54:03.748Z,10.20
2019-02-07T21:59:07.995Z,9.90
2019-02-07T22:04:12.043Z,10.10
2019-02-07T22:09:16.083Z,9.90
2019-02-07T22:14:20.068Z,10.20
2019-02-07T22:19:24.147Z,10.10
2019-02-07T22:24:28.207Z,10.10
2019-02-07T22:29:32.736Z,10.20
2019-02-07T22:34:36.803Z,10.10
2019-02-07T22:39:40.848Z,9.80
2019-02-07T22:44:44.912Z,10.10
2019-02-07T22:49:48.951Z,9.90
2019-02-07T22:54:53.391Z,10.00
2019-02-07T22:59:57.544Z,10.10
2019-02-07T23:05:01.601Z,10.10
2019-02-07T23:10:07.091Z,10.10
2019-02-07T23:15:11.151Z,9.90
2019-02-07T23:20:15.713Z,9.80
2019-02-07T23:25:21.310Z,10.10
2019-02-07T23:30:26.339Z,9.60
2019-02-07T23:35:30.792Z,9.90
2019-02-07T23:40:34.847Z,9.80
2019-02-07T23:45:38.935Z,9.50
2019-02-07T23:50:43.954Z,9.80
2019-02-07T23:55:48.017Z,9.80
